createdAt,value
2022-10-08T00:00:12.950Z,99306.31
2022-10-08T00:02:59.150Z,99322.72
2022-10-08T00:06:28.079Z,99325.31
2022-10-08T00:09:14.314Z,99331.34
2022-10-08T00:12:00.402Z,99293.34
2022-10-08T00:14:47.183Z,99326.16
2022-10-08T00:17:33.831Z,99319.28
2022-10-08T00:20:21.890Z,99326.19
2022-10-08T00:23:08.403Z,99306.31
2022-10-08T00:25:54.904Z,99326.19
2022-10-08T00:28:43.835Z,99303.72
2022-10-08T00:31:40.416Z,99320.94
2022-10-08T00:34:27.520Z,99319.25
2022-10-08T00:37:15.314Z,99324.41
2022-10-08T00:40:01.752Z,99316.69
2022-10-08T00:42:48.162Z,99319.28
2022-10-08T00:45:34.652Z,99302.00
2022-10-08T00:48:25.834Z,99302.84
2022-10-08T00:51:12.201Z,99308.03
2022-10-08T00:54:01.090Z,99283.88
2022-10-08T00:56:53.574Z,99290.78
2022-10-08T00:59:40.006Z,99309.75
2022-10-08T01:02:26.308Z,99295.09
2022-10-08T01:05:15.892Z,99283.88
2022-10-08T01:08:34.621Z,99288.16
2022-10-08T01:11:33.322Z,99290.75
2022-10-08T01:14:34.910Z,99293.31
2022-10-08T01:17:27.186Z,99281.22
2022-10-08T01:20:41.726Z,99238.09
2022-10-08T01:23:50.568Z,99289.00
2022-10-08T01:26:54.711Z,99294.22
2022-10-08T01:29:46.699Z,99295.06
2022-10-08T01:32:43.376Z,99294.19
2022-10-08T01:35:33.474Z,99290.75
2022-10-08T01:38:21.910Z,99295.06
2022-10-08T01:41:11.063Z,99288.16
2022-10-08T01:44:07.508Z,99263.13
2022-10-08T01:46:59.106Z,99301.97
2022-10-08T01:50:08.133Z,99283.84
2022-10-08T01:52:59.481Z,99288.16
2022-10-08T01:55:51.074Z,99256.22
2022-10-08T01:58:55.996Z,99263.13
2022-10-08T02:02:08.048Z,99283.91
2022-10-08T02:04:56.781Z,99274.41
2022-10-08T02:07:43.481Z,99273.50
2022-10-08T02:10:30.286Z,99274.44
2022-10-08T02:13:16.811Z,99277.03
2022-10-08T02:16:11.783Z,99263.22
2022-10-08T02:19:07.479Z,99282.19
2022-10-08T02:21:56.154Z,99280.47
2022-10-08T02:24:56.037Z,99255.44
2022-10-08T02:28:04.329Z,99283.94
2022-10-08T02:30:58.595Z,99273.56
2022-10-08T02:33:54.681Z,99258.03
2022-10-08T02:36:44.468Z,99282.19
2022-10-08T02:39:34.445Z,99242.44
2022-10-08T02:42:24.409Z,99275.25
2022-10-08T02:45:17.928Z,99252.81
2022-10-08T02:48:14.862Z,99257.97
2022-10-08T02:51:10.186Z,99302.88
2022-10-08T02:53:59.114Z,99297.66
2022-10-08T02:56:55.570Z,99300.25
2022-10-08T02:59:42.266Z,99276.91
2022-10-08T03:03:01.196Z,99308.00
2022-10-08T03:05:50.862Z,99291.59
2022-10-08T03:08:43.439Z,99286.41
2022-10-08T03:11:31.514Z,99305.38
2022-10-08T03:14:20.477Z,99307.09
2022-10-08T03:17:14.164Z,99304.50
2022-10-08T03:20:09.254Z,99282.94
2022-10-08T03:23:00.125Z,99283.81
2022-10-08T03:25:46.467Z,99307.13
2022-10-08T03:28:32.781Z,99318.38
2022-10-08T03:31:19.492Z,99302.84
2022-10-08T03:34:05.693Z,99318.41
2022-10-08T03:36:51.866Z,99316.66
2022-10-08T03:39:38.049Z,99318.41
2022-10-08T03:42:24.596Z,99297.72
2022-10-08T03:45:10.827Z,99320.19
2022-10-08T03:47:57.090Z,99330.50
2022-10-08T03:50:54.907Z,99327.97
2022-10-08T03:53:43.029Z,99331.44
2022-10-08T03:56:29.304Z,99337.50
2022-10-08T03:59:15.503Z,99334.03
2022-10-08T04:02:01.927Z,99312.47
2022-10-08T04:04:48.504Z,99333.19
2022-10-08T04:07:34.707Z,99349.63
2022-10-08T04:10:21.347Z,99345.31
2022-10-08T04:13:07.601Z,99316.78
2022-10-08T04:16:00.354Z,99350.47
2022-10-08T04:18:47.842Z,99354.78
2022-10-08T04:21:33.939Z,99341.84
2022-10-08T04:24:20.186Z,99349.59
2022-10-08T04:27:06.380Z,99337.44
2022-10-08T04:29:52.902Z,99350.38
2022-10-08T04:32:39.049Z,99327.94
2022-10-08T04:35:25.350Z,99306.34
2022-10-08T04:38:11.679Z,99321.88
2022-10-08T04:41:25.650Z,99351.97
2022-10-08T04:44:12.778Z,99351.06
2022-10-08T04:46:58.957Z,99359.66
2022-10-08T04:49:45.318Z,99366.53
2022-10-08T04:52:32.029Z,99367.34
2022-10-08T04:55:18.494Z,99367.25
2022-10-08T04:58:05.519Z,99378.41
2022-10-08T05:00:52.748Z,99353.34
2022-10-08T05:03:41.569Z,99365.44
2022-10-08T05:06:30.559Z,99348.09
2022-10-08T05:09:16.820Z,99369.59
2022-10-08T05:12:03.413Z,99351.63
2022-10-08T05:14:49.499Z,99359.44
2022-10-08T05:17:36.099Z,99387.03
2022-10-08T05:20:22.251Z,99386.16
2022-10-08T05:23:08.808Z,99355.94
2022-10-08T05:25:55.013Z,99385.28
2022-10-08T05:28:42.173Z,99399.16
2022-10-08T05:31:30.220Z,99399.94
2022-10-08T05:34:16.791Z,99393.00
2022-10-08T05:37:02.911Z,99395.66
2022-10-08T05:39:49.562Z,99387.09
2022-10-08T05:42:35.886Z,99373.25
2022-10-08T05:45:23.373Z,99401.75
2022-10-08T05:48:09.473Z,99406.88
2022-10-08T05:50:55.884Z,99395.56
2022-10-08T05:53:44.315Z,99390.44
2022-10-08T05:56:31.592Z,99404.13
2022-10-08T05:59:21.284Z,99405.88
2022-10-08T06:02:09.618Z,99402.47
2022-10-08T06:04:56.231Z,99416.31
2022-10-08T06:07:42.438Z,99422.44
2022-10-08T06:10:29.999Z,99412.06
2022-10-08T06:13:16.182Z,99422.41
2022-10-08T06:16:11.073Z,99426.75
2022-10-08T06:18:58.235Z,99431.88
2022-10-08T06:21:44.707Z,99414.66
2022-10-08T06:24:31.126Z,99405.97
2022-10-08T06:27:17.336Z,99428.44
2022-10-08T06:30:03.986Z,99424.97
2022-10-08T06:32:50.518Z,99418.91
2022-10-08T06:35:37.679Z,99431.81
2022-10-08T06:38:23.773Z,99433.53
2022-10-08T06:41:10.137Z,99434.31
2022-10-08T06:43:56.610Z,99455.78
2022-10-08T06:46:43.137Z,99450.53
2022-10-08T06:49:29.409Z,99441.84
2022-10-08T06:52:15.563Z,99473.72
2022-10-08T06:55:01.889Z,99445.06
2022-10-08T06:57:48.448Z,99443.19
2022-10-08T07:00:35.570Z,99445.81
2022-10-08T07:03:21.975Z,99464.88
2022-10-08T07:06:11.501Z,99477.63
2022-10-08T07:09:00.013Z,99489.69
2022-10-08T07:11:46.382Z,99493.88
2022-10-08T07:14:32.647Z,99466.91
2022-10-08T07:17:18.859Z,99456.38
2022-10-08T07:20:05.927Z,99492.41
2022-10-08T07:22:52.330Z,99487.78
2022-10-08T07:25:38.605Z,99496.16
2022-10-08T07:28:26.538Z,99503.88
2022-10-08T07:31:15.216Z,99501.28
2022-10-08T07:34:04.431Z,99500.44
2022-10-08T07:36:50.896Z,99484.28
2022-10-08T07:39:37.461Z,99493.53
2022-10-08T07:42:23.667Z,99505.59
2022-10-08T07:45:10.715Z,99527.34
2022-10-08T07:47:57.333Z,99505.59
2022-10-08T07:50:43.528Z,99497.75
2022-10-08T07:53:29.903Z,99514.84
2022-10-08T07:56:18.971Z,99505.50
2022-10-08T07:59:06.486Z,99534.94
2022-10-08T08:01:52.854Z,99534.88
2022-10-08T08:04:39.338Z,99508.22
2022-10-08T08:07:25.616Z,99519.28
2022-10-08T08:10:12.225Z,99508.94
2022-10-08T08:12:58.286Z,99534.00
2022-10-08T08:15:44.471Z,99545.16
2022-10-08T08:18:33.950Z,99498.19
2022-10-08T08:21:28.711Z,99537.63
2022-10-08T08:24:16.492Z,99548.13
2022-10-08T08:27:02.968Z,99549.69
2022-10-08T08:29:49.128Z,99547.66
2022-10-08T08:32:35.710Z,99523.38
2022-10-08T08:35:21.737Z,99551.81
2022-10-08T08:38:08.253Z,99551.91
2022-10-08T08:40:57.112Z,99552.03
2022-10-08T08:43:43.341Z,99553.66
2022-10-08T08:46:33.653Z,99565.59
2022-10-08T08:49:41.947Z,99557.03
2022-10-08T08:52:38.200Z,99566.44
2022-10-08T08:55:38.045Z,99557.63
2022-10-08T08:58:41.957Z,99531.00
2022-10-08T09:01:39.947Z,99543.13
2022-10-08T09:05:05.160Z,99561.13
2022-10-08T09:08:00.917Z,99555.09
2022-10-08T09:11:01.551Z,99574.16
2022-10-08T09:13:55.874Z,99564.66
2022-10-08T09:16:42.117Z,99554.81
2022-10-08T09:19:29.244Z,99554.09
2022-10-08T09:22:23.889Z,99560.94
2022-10-08T09:25:17.451Z,99588.47
2022-10-08T09:28:06.593Z,99587.34
2022-10-08T09:30:55.551Z,99563.25
2022-10-08T09:33:46.411Z,99586.44
2022-10-08T09:36:36.935Z,99590.78
2022-10-08T09:39:25.922Z,99589.81
2022-10-08T09:42:17.452Z,99587.13
2022-10-08T09:45:24.296Z,99586.19
2022-10-08T09:48:26.037Z,99593.78
2022-10-08T09:51:16.521Z,99578.28
2022-10-08T09:54:05.211Z,99579.00
2022-10-08T09:56:54.815Z,99583.97
2022-10-08T09:59:50.502Z,99552.97
2022-10-08T10:02:38.394Z,99567.53
2022-10-08T10:05:27.248Z,99596.88
2022-10-08T10:08:44.399Z,99596.94
2022-10-08T10:11:51.138Z,99595.34
2022-10-08T10:14:44.855Z,99576.44
2022-10-08T10:17:39.645Z,99609.31
2022-10-08T10:20:39.572Z,99588.84
2022-10-08T10:23:40.419Z,99616.69
2022-10-08T10:26:37.008Z,99565.84
2022-10-08T10:29:29.146Z,99603.03
2022-10-08T10:32:21.794Z,99600.53
2022-10-08T10:35:24.706Z,99607.84
2022-10-08T10:38:34.434Z,99613.53
2022-10-08T10:41:43.359Z,99592.00
2022-10-08T10:45:03.357Z,99607.59
2022-10-08T10:47:51.054Z,99579.47
2022-10-08T10:50:39.862Z,99594.09
2022-10-08T10:53:54.947Z,99616.69
2022-10-08T10:56:49.237Z,99591.16
2022-10-08T11:00:26.235Z,99607.66
2022-10-08T11:03:31.181Z,99612.06
2022-10-08T11:06:35.927Z,99604.19
2022-10-08T11:09:36.801Z,99611.03
2022-10-08T11:12:43.475Z,99585.69
2022-10-08T11:15:42.102Z,99593.16
2022-10-08T11:18:51.880Z,99603.19
2022-10-08T11:21:40.750Z,99602.03
2022-10-08T11:24:39.578Z,99604.53
2022-10-08T11:27:53.613Z,99605.34
2022-10-08T11:30:39.981Z,99599.25
2022-10-08T11:33:26.956Z,99581.75
2022-10-08T11:36:38.595Z,99583.66
2022-10-08T11:39:30.995Z,99606.03
2022-10-08T11:42:48.539Z,99601.28
2022-10-08T11:45:40.913Z,99571.25
2022-10-08T11:48:35.800Z,99594.16
2022-10-08T11:51:22.173Z,99602.13
2022-10-08T11:54:31.058Z,99594.50
2022-10-08T11:58:06.565Z,99598.34
2022-10-08T12:00:47.992Z,99590.69
2022-10-08T12:03:37.648Z,99589.06
2022-10-08T12:06:29.730Z,99599.13
2022-10-08T12:09:23.247Z,99599.06
2022-10-08T12:12:13.667Z,99552.53
2022-10-08T12:15:00.147Z,99592.19
2022-10-08T12:18:01.355Z,99597.63
2022-10-08T12:21:16.308Z,99598.56
2022-10-08T12:24:02.876Z,99566.44
2022-10-08T12:27:16.983Z,99601.16
2022-10-08T12:30:07.925Z,99595.69
2022-10-08T12:32:55.973Z,99595.13
2022-10-08T12:36:06.641Z,99591.59
2022-10-08T12:39:09.010Z,99594.38
2022-10-08T12:42:20.715Z,99569.81
2022-10-08T12:45:25.046Z,99582.72
2022-10-08T12:48:23.799Z,99571.84
2022-10-08T12:51:26.056Z,99579.88
2022-10-08T12:54:22.053Z,99569.25
2022-10-08T12:57:11.670Z,99589.03
2022-10-08T12:59:59.771Z,99587.72
2022-10-08T13:03:12.503Z,99551.41
2022-10-08T13:06:14.426Z,99586.97
2022-10-08T13:09:01.167Z,99565.88
2022-10-08T13:11:52.143Z,99580.56
2022-10-08T13:14:41.789Z,99581.88
2022-10-08T13:17:35.965Z,99592.28
2022-10-08T13:20:23.738Z,99596.16
2022-10-08T13:23:36.147Z,99592.84
2022-10-08T13:26:43.897Z,99591.22
2022-10-08T13:29:35.830Z,99567.63
2022-10-08T13:32:30.137Z,99585.91
2022-10-08T13:35:23.179Z,99546.81
2022-10-08T13:38:19.601Z,99586.81
2022-10-08T13:41:06.574Z,99589.44
2022-10-08T13:43:52.963Z,99590.88
2022-10-08T13:46:39.274Z,99564.09
2022-10-08T13:49:28.030Z,99574.84
2022-10-08T13:52:21.414Z,99570.69
2022-10-08T13:55:21.330Z,99581.00
2022-10-08T13:58:07.841Z,99600.13
2022-10-08T14:00:54.689Z,99582.38
2022-10-08T14:03:41.099Z,99581.25
2022-10-08T14:06:27.645Z,99593.63
2022-10-08T14:09:17.719Z,99589.47
2022-10-08T14:12:05.339Z,99582.59
2022-10-08T14:14:51.731Z,99584.44
2022-10-08T14:17:38.302Z,99575.81
2022-10-08T14:20:24.632Z,99579.34
2022-10-08T14:23:13.393Z,99583.84
2022-10-08T14:25:59.792Z,99572.06
2022-10-08T14:28:46.245Z,99577.25
2022-10-08T14:31:33.174Z,99567.22
2022-10-08T14:34:19.356Z,99586.94
2022-10-08T14:37:05.861Z,99586.28
2022-10-08T14:39:52.306Z,99575.88
2022-10-08T14:42:38.715Z,99582.63
2022-10-08T14:45:25.160Z,99591.13
2022-10-08T14:48:11.307Z,99597.16
2022-10-08T14:50:58.049Z,99584.78
2022-10-08T14:53:44.532Z,99530.94
2022-10-08T14:56:30.710Z,99562.63
2022-10-08T14:59:18.289Z,99587.31
2022-10-08T15:02:04.693Z,99582.09
2022-10-08T15:04:51.229Z,99579.72
2022-10-08T15:07:37.647Z,99594.59
2022-10-08T15:10:24.185Z,99573.19
2022-10-08T15:13:10.750Z,99571.69
2022-10-08T15:15:57.533Z,99599.25
2022-10-08T15:18:44.252Z,99593.22
2022-10-08T15:21:30.676Z,99585.38
2022-10-08T15:24:17.200Z,99519.78
2022-10-08T15:27:03.277Z,99597.81
2022-10-08T15:29:49.439Z,99583.16
2022-10-08T15:32:37.134Z,99598.06
2022-10-08T15:35:23.300Z,99574.91
2022-10-08T15:38:09.777Z,99588.13
2022-10-08T15:41:02.925Z,99601.38
2022-10-08T15:43:49.269Z,99613.88
2022-10-08T15:46:36.092Z,99600.66
2022-10-08T15:49:22.435Z,99619.00
2022-10-08T15:52:12.111Z,99616.50
2022-10-08T15:54:58.251Z,99615.94
2022-10-08T15:57:44.672Z,99611.69
2022-10-08T16:00:37.841Z,99600.50
2022-10-08T16:03:24.694Z,99621.28
2022-10-08T16:06:13.936Z,99633.50
2022-10-08T16:09:00.630Z,99637.00
2022-10-08T16:11:47.387Z,99634.38
2022-10-08T16:14:33.670Z,99574.88
2022-10-08T16:17:19.919Z,99645.78
2022-10-08T16:20:06.770Z,99637.25
2022-10-08T16:22:52.994Z,99625.31
2022-10-08T16:25:43.476Z,99621.06
2022-10-08T16:28:34.368Z,99634.13
2022-10-08T16:31:22.427Z,99634.28
2022-10-08T16:34:18.233Z,99647.41
2022-10-08T16:37:05.050Z,99612.91
2022-10-08T16:39:51.620Z,99651.09
2022-10-08T16:42:38.139Z,99670.22
2022-10-08T16:45:24.370Z,99626.16
2022-10-08T16:48:10.590Z,99653.03
2022-10-08T16:50:56.995Z,99656.53
2022-10-08T16:53:47.949Z,99681.66
2022-10-08T16:56:36.870Z,99682.53
2022-10-08T16:59:26.479Z,99688.59
2022-10-08T17:02:12.634Z,99692.09
2022-10-08T17:04:58.774Z,99681.72
2022-10-08T17:07:45.165Z,99685.19
2022-10-08T17:10:31.828Z,99687.78
2022-10-08T17:13:18.111Z,99701.66
2022-10-08T17:16:07.271Z,99705.09
2022-10-08T17:18:56.250Z,99712.88
2022-10-08T17:21:43.009Z,99696.44
2022-10-08T17:24:29.351Z,99708.56
2022-10-08T17:27:15.883Z,99718.06
2022-10-08T17:30:02.276Z,99702.38
2022-10-08T17:32:48.745Z,99728.34
2022-10-08T17:35:35.083Z,99741.28
2022-10-08T17:38:21.482Z,99746.41
2022-10-08T17:41:21.306Z,99752.44
2022-10-08T17:44:09.667Z,99759.34
2022-10-08T17:46:56.121Z,99757.53
2022-10-08T17:49:42.425Z,99754.84
2022-10-08T17:52:30.138Z,99762.59
2022-10-08T17:55:17.144Z,99767.75
2022-10-08T17:58:03.367Z,99764.22
2022-10-08T18:00:49.952Z,99742.47
2022-10-08T18:03:37.642Z,99785.78
2022-10-08T18:06:25.689Z,99784.03
2022-10-08T18:09:15.174Z,99782.22
2022-10-08T18:12:01.386Z,99783.03
2022-10-08T18:14:48.157Z,99772.63
2022-10-08T18:17:34.611Z,99746.47
2022-10-08T18:20:20.882Z,99806.25
2022-10-08T18:23:08.371Z,99785.44
2022-10-08T18:25:54.758Z,99773.22
2022-10-08T18:28:41.482Z,99788.72
2022-10-08T18:31:31.215Z,99806.00
2022-10-08T18:34:18.758Z,99805.97
2022-10-08T18:37:04.890Z,99778.09
2022-10-08T18:39:51.238Z,99784.09
2022-10-08T18:42:37.714Z,99757.09
2022-10-08T18:45:24.495Z,99824.69
2022-10-08T18:48:10.678Z,99822.03
2022-10-08T18:51:08.991Z,99819.38
2022-10-08T18:53:57.631Z,99806.28
2022-10-08T18:56:43.857Z,99830.50
2022-10-08T18:59:31.944Z,99806.97
2022-10-08T19:02:18.270Z,99844.19
2022-10-08T19:05:04.964Z,99839.78
2022-10-08T19:07:51.357Z,99834.41
2022-10-08T19:10:37.738Z,99847.34
2022-10-08T19:13:23.900Z,99844.66
2022-10-08T19:16:13.544Z,99836.84
2022-10-08T19:19:04.933Z,99854.13
2022-10-08T19:21:52.094Z,99844.66
2022-10-08T19:24:41.037Z,99860.97
2022-10-08T19:27:27.833Z,99834.88
2022-10-08T19:30:15.783Z,99836.63
2022-10-08T19:33:01.973Z,99850.47
2022-10-08T19:35:48.230Z,99865.16
2022-10-08T19:38:35.218Z,99829.47
2022-10-08T19:41:23.436Z,99869.28
2022-10-08T19:44:10.121Z,99867.47
2022-10-08T19:46:56.647Z,99881.28
2022-10-08T19:49:43.204Z,99867.19
2022-10-08T19:52:29.601Z,99848.84
2022-10-08T19:55:16.054Z,99870.38
2022-10-08T19:58:02.226Z,99888.53
2022-10-08T20:00:56.962Z,99894.44
2022-10-08T20:03:43.583Z,99899.59
2022-10-08T20:06:31.521Z,99902.13
2022-10-08T20:09:17.696Z,99910.53
2022-10-08T20:12:04.149Z,99907.94
2022-10-08T20:14:50.277Z,99915.59
2022-10-08T20:17:36.947Z,99906.81
2022-10-08T20:20:32.951Z,99909.41
2022-10-08T20:23:20.078Z,99917.94
2022-10-08T20:26:19.602Z,99914.47
2022-10-08T20:29:08.914Z,99924.72
2022-10-08T20:31:55.479Z,99909.84
2022-10-08T20:34:41.729Z,99918.50
2022-10-08T20:37:28.050Z,99915.78
2022-10-08T20:40:14.208Z,99924.34
2022-10-08T20:43:00.809Z,99903.41
2022-10-08T20:45:47.190Z,99904.22
2022-10-08T20:48:36.974Z,99891.94
2022-10-08T20:51:25.921Z,99924.97
2022-10-08T20:54:14.662Z,99924.03
2022-10-08T20:57:00.728Z,99925.66
2022-10-08T20:59:47.137Z,99927.25
2022-10-08T21:02:33.579Z,99925.47
2022-10-08T21:05:20.108Z,99901.75
2022-10-08T21:08:06.931Z,99913.84
2022-10-08T21:10:53.318Z,99924.28
2022-10-08T21:13:39.778Z,99905.91
2022-10-08T21:16:28.474Z,99931.84
2022-10-08T21:19:21.901Z,99933.56
2022-10-08T21:22:08.360Z,99922.22
2022-10-08T21:24:54.488Z,99896.03
2022-10-08T21:27:40.987Z,99915.88
2022-10-08T21:30:27.157Z,99905.28
2022-10-08T21:33:13.617Z,99936.50
2022-10-08T21:36:00.014Z,99940.63
2022-10-08T21:38:46.912Z,99943.94
2022-10-08T21:41:35.196Z,99930.13
2022-10-08T21:44:21.459Z,99921.97
2022-10-08T21:47:07.667Z,99920.16
2022-10-08T21:49:54.148Z,99897.38
2022-10-08T21:52:40.278Z,99892.03
2022-10-08T21:55:26.762Z,99948.53
2022-10-08T21:58:13.124Z,99930.00
2022-10-08T22:00:59.670Z,99948.41
2022-10-08T22:03:46.438Z,99943.97
2022-10-08T22:06:35.858Z,99948.28
2022-10-08T22:09:25.786Z,99951.59
2022-10-08T22:12:12.073Z,99929.78
2022-10-08T22:14:58.669Z,99940.38
2022-10-08T22:17:45.086Z,99896.63
2022-10-08T22:20:31.237Z,99947.03
2022-10-08T22:23:18.687Z,99941.72
2022-10-08T22:26:08.260Z,99915.59
2022-10-08T22:28:54.692Z,99936.41
2022-10-08T22:31:41.103Z,99936.25
2022-10-08T22:34:27.690Z,99929.22
2022-10-08T22:37:13.879Z,99935.41
2022-10-08T22:40:00.114Z,99932.66
2022-10-08T22:42:46.786Z,99934.38
2022-10-08T22:45:38.527Z,99916.06
2022-10-08T22:48:25.024Z,99933.56
2022-10-08T22:51:17.302Z,99935.34
2022-10-08T22:54:03.765Z,99909.22
2022-10-08T22:56:50.331Z,99926.44
2022-10-08T22:59:36.519Z,99855.59
2022-10-08T23:02:23.112Z,99934.06
2022-10-08T23:05:09.309Z,99908.66
2022-10-08T23:07:56.507Z,99935.41
2022-10-08T23:10:42.903Z,99911.72
2022-10-08T23:13:29.953Z,99925.53
2022-10-08T23:16:16.184Z,99898.47
2022-10-08T23:19:06.127Z,99941.91
2022-10-08T23:21:52.434Z,99915.81
2022-10-08T23:24:38.565Z,99907.75
2022-10-08T23:27:25.133Z,99944.31
2022-10-08T23:30:31.303Z,99938.31
2022-10-08T23:33:18.430Z,99939.97
2022-10-08T23:36:06.645Z,99926.31
2022-10-08T23:38:53.149Z,99899.47
2022-10-08T23:41:39.665Z,99943.84
2022-10-08T23:44:26.085Z,99938.72
2022-10-08T23:47:12.306Z,99944.75
2022-10-08T23:49:58.733Z,99917.44
2022-10-08T23:52:45.448Z,99922.38
2022-10-08T23:55:32.189Z,99912.03
2022-10-08T23:58:18.977Z,99924.19
